Time;durP1;ratioP1;P1;durP2;ratioP2;P2;SDS_P1;SDS_P2;PMS_P1;PMS_P2;Temp;Humidity;BMP_temperature;BMP_pressure;BME280_temperature;BME280_humidity;BME280_pressure;Samples;Min_cycle;Max_cycle;Signal;HPM_P1;HPM_P2
2022/01/26 00:07:10;;;;;;;;;34.25;28.00;;;;;7.02;53.99;102966.09;5086246;27;45432;-74
2022/01/26 00:09:36;;;;;;;;;33.25;23.25;;;;;7.08;54.21;102973.81;5053856;28;47033;-73
2022/01/26 00:12:02;;;;;;;;;33.25;30.25;;;;;7.08;54.41;102973.81;5072928;28;45714;-73
2022/01/26 00:14:27;;;;;;;;;37.50;33.00;;;;;7.08;54.59;102976.53;5072415;28;45725;-75
2022/01/26 00:16:53;;;;;;;;;44.00;31.75;;;;;7.04;54.45;102969.59;5072567;28;45470;-74
2022/01/26 00:19:25;;;;;;;;;41.00;31.50;;;;;7.05;54.64;102979.50;5072145;28;45474;-75
2022/01/26 00:21:52;;;;;;;;;31.00;28.00;;;;;7.02;54.40;102982.47;5072522;28;45795;-74
2022/01/26 00:29:23;;;;;;;;;33.25;30.25;;;;;7.03;54.25;102976.03;5066364;28;46388;-74
2022/01/26 00:40:38;;;;;;;;;35.50;30.25;;;;;7.01;54.85;102970.72;5078290;28;45662;-78
2022/01/26 00:43:09;;;;;;;;;42.00;32.75;;;;;7.08;55.16;102973.81;5076591;28;45726;-78
2022/01/26 00:45:36;;;;;;;;;34.00;24.75;;;;;7.09;53.99;102972.78;5080269;28;45199;-78
2022/01/26 00:48:05;;;;;;;;;38.25;33.00;;;;;7.10;54.53;102982.72;5082035;28;45386;-78
2022/01/26 00:50:33;;;;;;;;;40.50;32.75;;;;;7.07;54.14;102977.50;5078233;28;45434;-74
2022/01/26 00:52:59;;;;;;;;;33.00;26.50;;;;;7.07;54.77;102974.78;5041566;28;45560;-74
2022/01/26 00:55:24;;;;;;;;;40.25;31.00;;;;;7.05;54.31;102980.38;5076067;28;45461;-77
2022/01/26 00:57:50;;;;;;;;;28.25;24.75;;;;;7.10;53.96;102974.53;5076799;28;45700;-74
2022/01/26 01:00:26;;;;;;;;;30.00;26.25;;;;;7.10;53.90;102971.78;5075612;28;46262;-73
2022/01/26 01:02:53;;;;;;;;;33.00;29.75;;;;;7.11;53.63;102979.00;5057356;28;45830;-75
2022/01/26 01:06:06;;;;;;;;;30.25;25.75;;;;;7.09;54.13;102977.38;5077563;28;45497;-76
2022/01/26 01:08:14;;;;;;;;;43.50;30.50;;;;;7.06;53.70;102979.34;5053811;28;45980;-78
2022/01/26 01:10:40;;;;;;;;;31.75;27.25;;;;;7.04;53.57;102966.88;5058581;28;47440;-77
2022/01/26 01:13:13;;;;;;;;;31.75;29.00;;;;;7.02;53.53;102969.72;5075868;28;45429;-74
2022/01/26 01:15:39;;;;;;;;;42.50;30.25;;;;;6.98;53.30;102964.66;5079169;28;45112;-77
2022/01/26 01:18:14;;;;;;;;;38.00;27.75;;;;;6.92;53.56;102965.19;5075781;28;45452;-73
2022/01/26 01:29:10;;;;;;;;;33.50;27.50;;;;;6.65;54.26;102970.09;5074675;28;45730;-74
2022/01/26 01:31:45;;;;;;;;;32.75;31.25;;;;;6.64;53.60;102986.59;5074814;28;46107;-75
2022/01/26 01:34:13;;;;;;;;;32.75;25.75;;;;;6.48;53.56;102974.22;5075253;28;45490;-74
2022/01/26 01:36:41;;;;;;;;;28.25;23.50;;;;;6.39;54.33;102982.28;5077383;28;45917;-73
2022/01/26 01:39:07;;;;;;;;;33.00;27.75;;;;;6.32;54.70;102980.06;5091101;27;45549;-75
2022/01/26 01:41:34;;;;;;;;;33.50;29.75;;;;;6.30;54.96;102970.28;5091831;27;47150;-73
2022/01/26 01:44:00;;;;;;;;;37.50;25.50;;;;;6.26;54.87;102979.72;5087857;27;45424;-78
2022/01/26 01:46:27;;;;;;;;;39.25;26.25;;;;;6.19;54.91;102974.75;5057300;28;45483;-75
2022/01/26 01:48:52;;;;;;;;;32.50;29.25;;;;;6.16;55.06;102983.16;5063590;28;45575;-76
2022/01/26 01:51:19;;;;;;;;;37.50;27.00;;;;;6.13;55.04;102993.47;5078051;28;45423;-76
2022/01/26 01:53:45;;;;;;;;;37.50;26.25;;;;;6.04;55.06;102991.47;5093432;27;45697;-77
2022/01/26 01:56:13;;;;;;;;;29.50;25.75;;;;;6.02;55.36;102997.06;5075644;28;45569;-76
2022/01/26 01:58:39;;;;;;;;;38.25;29.50;;;;;6.01;55.20;102988.00;5075288;28;45364;-77
2022/01/26 02:01:05;;;;;;;;;36.75;31.75;;;;;6.06;55.47;102995.78;5056884;28;45865;-73
2022/01/26 02:03:31;;;;;;;;;32.50;26.00;;;;;6.12;55.71;102994.44;5056724;28;45427;-72
2022/01/26 02:05:57;;;;;;;;;31.50;25.00;;;;;6.19;55.21;102996.53;5070904;28;45313;-73
2022/01/26 02:08:23;;;;;;;;;30.00;29.00;;;;;6.25;55.30;102997.91;5063568;28;45525;-77
2022/01/26 02:10:48;;;;;;;;;32.00;26.50;;;;;6.30;54.91;103000.25;5054610;28;46226;-76
2022/01/26 02:13:22;;;;;;;;;35.25;25.75;;;;;6.30;55.19;102990.25;5054720;28;45886;-71
2022/01/26 02:21:10;;;;;;;;;26.25;19.00;;;;;6.54;54.69;102995.53;5061398;28;46546;-77
2022/01/26 02:56:29;;;;;;;;;31.00;28.00;;;;;7.32;52.73;102986.31;5073842;28;45516;-73
2022/01/26 03:05:07;;;;;;;;;36.75;29.25;;;;;7.38;52.62;102974.88;5073381;28;46606;-74
2022/01/26 03:07:18;;;;;;;;;35.75;31.25;;;;;7.40;52.59;102970.16;5059544;28;45469;-72
2022/01/26 03:09:49;;;;;;;;;32.50;26.75;;;;;7.41;53.29;102966.44;5056174;28;45652;-73
2022/01/26 03:12:25;;;;;;;;;37.25;32.75;;;;;7.41;52.55;102963.72;5073798;28;45524;-72
2022/01/26 03:14:56;;;;;;;;;42.75;32.50;;;;;7.47;53.08;102965.91;5074141;28;45725;-72
2022/01/26 03:20:11;;;;;;;;;34.00;27.75;;;;;7.51;52.46;102961.88;5074304;28;45443;-77
2022/01/26 03:28:38;;;;;;;;;30.75;27.75;;;;;7.56;52.27;102947.81;5073926;28;45474;-77
2022/01/26 03:36:19;;;;;;;;;28.00;24.00;;;;;7.60;52.24;102939.25;5072916;28;45351;-72
2022/01/26 03:38:49;;;;;;;;;38.50;31.75;;;;;7.64;52.43;102944.44;5073038;28;45485;-72
2022/01/26 03:43:46;;;;;;;;;31.75;23.75;;;;;7.68;52.25;102951.34;5074231;28;45431;-76
2022/01/26 03:46:11;;;;;;;;;40.00;30.75;;;;;7.72;51.68;102958.28;5073595;28;45981;-74
2022/01/26 03:48:37;;;;;;;;;38.50;31.75;;;;;7.73;51.86;102958.13;5055075;28;45430;-73
2022/01/26 03:51:03;;;;;;;;;36.25;30.50;;;;;7.71;51.61;102951.06;5073960;28;45508;-73
2022/01/26 03:53:29;;;;;;;;;43.50;34.75;;;;;7.73;51.89;102969.06;5074321;28;45322;-77
2022/01/26 03:55:54;;;;;;;;;40.25;29.50;;;;;7.74;52.14;102957.16;5073982;28;45347;-74
2022/01/26 03:58:20;;;;;;;;;37.75;30.00;;;;;7.77;52.31;102956.00;5074214;28;45334;-76
2022/01/26 04:00:45;;;;;;;;;43.00;33.50;;;;;7.74;51.84;102950.81;5055616;28;45355;-74
2022/01/26 04:03:11;;;;;;;;;43.75;33.75;;;;;7.76;52.15;102955.13;5073888;28;45368;-77
2022/01/26 04:05:36;;;;;;;;;35.50;28.75;;;;;7.75;51.70;102949.81;5073704;28;46413;-74
2022/01/26 04:08:08;;;;;;;;;49.50;34.50;;;;;7.79;51.53;102948.53;5089200;27;45422;-71
2022/01/26 04:11:28;;;;;;;;;36.25;33.00;;;;;7.80;52.23;102961.22;5073200;28;45857;-73
2022/01/26 04:13:22;;;;;;;;;34.50;28.75;;;;;7.78;51.95;102952.25;5061977;28;45677;-73
2022/01/26 04:15:48;;;;;;;;;48.75;33.75;;;;;7.79;51.83;102951.28;5072790;28;45918;-73
2022/01/26 04:18:18;;;;;;;;;32.50;28.75;;;;;7.81;51.87;102940.22;5090048;27;45730;-73
2022/01/26 04:20:48;;;;;;;;;48.50;35.75;;;;;7.84;50.97;102940.78;5086062;27;45656;-76
2022/01/26 04:23:24;;;;;;;;;44.00;31.50;;;;;7.87;51.81;102950.59;5034281;28;46143;-74
2022/01/26 04:25:51;;;;;;;;;39.67;34.33;;;;;7.85;51.09;102948.00;5052365;28;46344;-72
2022/01/26 04:28:23;;;;;;;;;41.25;33.25;;;;;7.75;52.21;102927.94;5051711;28;45854;-74
2022/01/26 04:30:50;;;;;;;;;38.50;32.00;;;;;7.88;51.46;102946.84;5033706;28;45410;-74
2022/01/26 04:33:15;;;;;;;;;37.00;32.33;;;;;7.83;51.86;102939.09;5032545;28;45969;-73
2022/01/26 04:35:44;;;;;;;;;45.00;34.50;;;;;7.83;51.79;102950.00;5051333;28;45618;-74
2022/01/26 04:38:20;;;;;;;;;44.50;34.00;;;;;7.84;52.05;102946.25;5050951;28;45352;-72
2022/01/26 04:41:23;;;;;;;;;39.75;34.00;;;;;7.86;51.42;102946.13;5051460;28;45400;-74
2022/01/26 04:43:52;;;;;;;;;42.25;35.75;;;;;7.88;51.15;102928.59;5052658;28;45750;-74
2022/01/26 04:46:18;;;;;;;;;44.00;34.75;;;;;7.90;51.38;102940.28;5051523;28;46475;-74
2022/01/26 04:48:43;;;;;;;;;34.50;30.00;;;;;7.90;51.63;102942.13;5033711;28;45640;-73
2022/01/26 04:51:09;;;;;;;;;43.75;34.25;;;;;7.87;51.18;102929.59;5052414;28;45687;-75
2022/01/26 04:53:34;;;;;;;;;37.50;34.00;;;;;7.94;51.35;102941.69;5053403;28;45484;-75
2022/01/26 04:56:00;;;;;;;;;43.25;35.75;;;;;7.94;51.56;102938.97;5067255;28;45916;-74
2022/01/26 04:58:26;;;;;;;;;39.50;28.25;;;;;7.98;51.49;102938.69;5054561;28;45429;-76
2022/01/26 05:00:51;;;;;;;;;40.00;33.50;;;;;8.00;51.39;102939.44;5073804;28;45329;-75
2022/01/26 05:03:17;;;;;;;;;45.00;33.00;;;;;7.98;51.19;102941.41;5075027;28;45877;-75
2022/01/26 05:05:42;;;;;;;;;55.00;39.00;;;;;7.95;51.61;102937.97;5073356;28;45980;-76
2022/01/26 05:08:08;;;;;;;;;39.50;35.25;;;;;7.92;51.22;102929.19;5073161;28;45398;-77
2022/01/26 05:10:35;;;;;;;;;44.25;36.50;;;;;7.96;51.64;102933.38;5090983;27;45331;-78
2022/01/26 05:13:00;;;;;;;;;47.75;36.50;;;;;7.91;51.50;102931.03;5076786;28;45347;-77
2022/01/26 05:15:26;;;;;;;;;51.00;39.75;;;;;7.95;51.51;102948.91;5079328;28;45543;-78
2022/01/26 05:17:51;;;;;;;;;44.75;33.75;;;;;8.02;51.14;102941.00;5078015;28;45439;-80
2022/01/26 05:20:17;;;;;;;;;44.75;38.00;;;;;8.06;51.48;102930.69;5078161;28;45416;-79
2022/01/26 05:22:44;;;;;;;;;51.50;38.50;;;;;8.05;50.99;102943.47;5074936;28;46036;-79
2022/01/26 05:25:11;;;;;;;;;53.00;38.50;;;;;8.03;51.47;102930.97;5058933;28;45371;-79
2022/01/26 05:27:37;;;;;;;;;54.50;38.75;;;;;8.06;51.51;102928.81;5058018;28;45415;-79
2022/01/26 05:30:05;;;;;;;;;51.00;38.75;;;;;8.09;51.24;102923.06;5059792;28;45532;-79
2022/01/26 05:32:31;;;;;;;;;52.25;39.75;;;;;8.11;51.03;102925.66;5059600;28;45876;-79
2022/01/26 05:34:57;;;;;;;;;48.00;38.25;;;;;8.13;51.83;102929.13;5060154;28;45560;-78
2022/01/26 05:37:22;;;;;;;;;51.50;35.00;;;;;8.08;51.71;102913.16;5042928;28;45368;-78
2022/01/26 05:39:47;;;;;;;;;51.50;40.50;;;;;8.13;52.20;102919.06;5045050;28;45804;-80
2022/01/26 05:42:13;;;;;;;;;51.50;39.75;;;;;8.11;51.58;102920.19;5061014;28;45671;-78
2022/01/26 05:44:39;;;;;;;;;51.50;38.00;;;;;8.15;51.13;102921.66;5040925;28;47617;-81
2022/01/26 05:47:08;;;;;;;;;49.00;38.25;;;;;8.13;50.47;102916.31;5057549;28;45419;-77
2022/01/26 05:49:33;;;;;;;;;56.50;41.75;;;;;8.19;50.64;102925.84;5055038;28;45728;-78
2022/01/26 05:51:59;;;;;;;;;42.75;36.25;;;;;8.17;50.86;102919.63;5036875;28;46187;-80
2022/01/26 05:54:24;;;;;;;;;52.50;40.00;;;;;8.16;50.37;102928.84;5036617;28;48455;-79
2022/01/26 05:56:50;;;;;;;;;51.25;38.75;;;;;8.12;49.95;102927.41;5027638;28;45370;-78
2022/01/26 05:59:19;;;;;;;;;51.75;38.50;;;;;8.08;50.59;102923.19;5037631;28;45400;-80
2022/01/26 06:01:44;;;;;;;;;47.00;35.25;;;;;8.09;49.77;102930.41;5055919;28;45621;-80
2022/01/26 06:04:09;;;;;;;;;58.00;40.75;;;;;8.09;50.19;102928.53;5055805;28;45582;-77
2022/01/26 06:06:35;;;;;;;;;55.00;41.25;;;;;8.10;49.75;102934.88;5057124;28;45791;-79
2022/01/26 06:09:01;;;;;;;;;51.75;38.25;;;;;8.12;49.97;102928.25;5057514;28;45534;-79
2022/01/26 06:11:26;;;;;;;;;53.75;40.25;;;;;8.02;50.18;102916.41;5055726;28;45867;-79
2022/01/26 06:13:51;;;;;;;;;51.25;37.75;;;;;8.13;50.09;102940.06;5056112;28;46130;-78
2022/01/26 06:16:17;;;;;;;;;51.00;40.50;;;;;8.18;50.01;102942.38;5055815;28;45536;-80
2022/01/26 06:18:45;;;;;;;;;55.00;40.00;;;;;8.18;49.33;102939.66;5056613;28;45468;-81
2022/01/26 06:21:10;;;;;;;;;43.50;35.00;;;;;8.17;49.92;102944.22;5053558;28;45362;-79
2022/01/26 06:23:36;;;;;;;;;54.25;36.50;;;;;8.18;49.10;102945.97;5028727;28;47184;-79
2022/01/26 06:26:02;;;;;;;;;47.75;33.75;;;;;8.10;49.75;102945.81;5055392;28;45736;-79
2022/01/26 06:28:28;;;;;;;;;51.50;40.75;;;;;8.11;49.49;102963.91;5031650;28;45377;-79
2022/01/26 06:31:00;;;;;;;;;49.25;35.00;;;;;8.01;50.07;102963.91;5055579;28;45716;-79
2022/01/26 06:33:27;;;;;;;;;54.50;39.50;;;;;7.98;50.54;102979.69;5063981;28;45374;-78
2022/01/26 06:35:53;;;;;;;;;60.75;44.75;;;;;7.92;51.02;102972.91;5075958;28;45403;-77
2022/01/26 06:38:18;;;;;;;;;62.00;43.25;;;;;7.90;50.68;102977.63;5075769;28;45589;-78
2022/01/26 06:40:44;;;;;;;;;53.50;40.75;;;;;7.90;51.20;102983.09;5075261;28;45692;-78
2022/01/26 06:43:13;;;;;;;;;57.50;42.00;;;;;7.87;51.02;102989.69;5075099;28;45739;-77
2022/01/26 06:45:54;;;;;;;;;55.50;42.00;;;;;7.86;51.30;102993.44;5076242;28;45426;-76
2022/01/26 06:50:52;;;;;;;;;49.00;40.50;;;;;7.89;50.76;103004.09;5079072;28;44754;-81
2022/01/26 06:53:18;;;;;;;;;56.50;42.00;;;;;7.88;50.57;102990.56;5040460;28;45709;-79
2022/01/26 06:55:43;;;;;;;;;55.00;40.00;;;;;7.88;50.72;102999.63;5075566;28;45824;-77
2022/01/26 06:58:09;;;;;;;;;56.75;44.50;;;;;7.87;51.68;102997.88;5061923;27;45571;-79
2022/01/26 07:00:35;;;;;;;;;57.25;44.75;;;;;7.84;50.94;103002.75;5069244;28;45905;-79
2022/01/26 07:03:00;;;;;;;;;53.25;38.50;;;;;7.70;50.95;102985.72;5071613;28;46498;-79
2022/01/26 07:05:26;;;;;;;;;54.00;37.50;;;;;7.73;50.84;103000.97;5072791;28;45434;-81
2022/01/26 07:07:52;;;;;;;;;49.25;37.25;;;;;7.64;51.25;102999.06;5054447;28;45593;-80
2022/01/26 07:10:17;;;;;;;;;52.50;39.00;;;;;7.58;50.93;102995.84;5065709;28;45541;-81
2022/01/26 07:12:43;;;;;;;;;52.50;38.75;;;;;7.56;51.84;102981.47;5066057;28;46107;-80
2022/01/26 07:23:07;;;;;;;;;57.75;39.50;;;;;7.54;50.73;102982.59;5076635;28;45931;-77
2022/01/26 07:25:33;;;;;;;;;57.00;40.00;;;;;7.51;50.43;102991.91;5057523;28;45419;-76
2022/01/26 07:28:02;;;;;;;;;59.25;43.50;;;;;7.50;51.39;102987.47;5071408;28;45422;-76
2022/01/26 07:30:28;;;;;;;;;54.75;43.25;;;;;7.43;51.13;102987.13;5074446;28;45776;-77
2022/01/26 07:32:54;;;;;;;;;54.00;39.50;;;;;7.39;51.72;102995.72;5056248;28;47400;-76
2022/01/26 07:35:19;;;;;;;;;51.00;41.50;;;;;7.37;51.22;102992.25;5055370;28;45960;-77
2022/01/26 07:37:47;;;;;;;;;60.50;45.00;;;;;7.40;51.52;102995.59;5054458;28;45329;-75
2022/01/26 07:40:13;;;;;;;;;62.00;44.50;;;;;7.35;51.79;102986.06;5066877;28;45564;-76
2022/01/26 07:42:39;;;;;;;;;54.25;41.00;;;;;7.39;51.67;102990.25;5064410;28;45689;-75
2022/01/26 07:45:07;;;;;;;;;58.50;39.00;;;;;7.42;52.12;102996.34;5053091;28;45824;-74
2022/01/26 07:47:33;;;;;;;;;55.75;39.25;;;;;7.47;51.22;102998.66;5072058;28;45814;-78
2022/01/26 07:50:00;;;;;;;;;55.50;41.25;;;;;7.43;51.69;102997.19;5072934;28;45534;-79
2022/01/26 07:52:28;;;;;;;;;52.50;40.50;;;;;7.51;52.59;103011.03;5049812;28;45435;-79
2022/01/26 07:54:54;;;;;;;;;50.75;37.75;;;;;7.52;51.33;103018.22;5054587;27;45641;-78
2022/01/26 07:57:20;;;;;;;;;49.25;38.75;;;;;7.52;51.79;103015.50;5061914;28;45925;-78
2022/01/26 07:59:46;;;;;;;;;58.75;41.75;;;;;7.52;51.22;103015.50;5050005;28;45830;-78
2022/01/26 08:02:11;;;;;;;;;42.25;37.25;;;;;7.57;51.11;103007.78;5047015;28;46922;-78
2022/01/26 08:04:37;;;;;;;;;52.00;38.75;;;;;7.66;52.09;102986.13;5052736;27;45970;-79
2022/01/26 08:07:03;;;;;;;;;54.75;37.75;;;;;7.68;52.43;102970.47;5061441;28;45498;-78
2022/01/26 08:09:28;;;;;;;;;52.00;40.50;;;;;7.75;51.65;102979.84;5061231;28;45938;-76
2022/01/26 08:11:54;;;;;;;;;59.25;42.25;;;;;7.76;51.19;102987.06;5064887;27;46833;-77
2022/01/26 08:14:19;;;;;;;;;53.50;38.25;;;;;7.74;51.35;102989.06;5040650;28;46109;-77
2022/01/26 08:16:45;;;;;;;;;52.25;41.25;;;;;7.73;51.45;102976.41;5061572;28;45809;-77
2022/01/26 08:19:13;;;;;;;;;57.75;39.75;;;;;7.79;51.55;102975.84;5061842;28;46172;-78
2022/01/26 08:21:39;;;;;;;;;58.25;42.00;;;;;7.84;51.42;102975.44;5065404;28;45548;-79
2022/01/26 08:24:13;;;;;;;;;60.50;44.50;;;;;7.87;50.71;102986.94;5068799;28;45680;-78
2022/01/26 08:26:46;;;;;;;;;53.75;43.00;;;;;7.93;50.59;102983.72;5050267;28;45787;-77
2022/01/26 08:29:37;;;;;;;;;51.25;38.50;;;;;8.05;51.51;102983.59;5041461;28;47287;-77
2022/01/26 08:32:03;;;;;;;;;58.00;44.75;;;;;7.99;50.70;102976.81;5064340;28;47453;-79
2022/01/26 08:34:29;;;;;;;;;62.00;46.00;;;;;7.97;51.51;102964.31;5059603;28;45558;-77
2022/01/26 08:36:56;;;;;;;;;54.75;43.00;;;;;8.00;51.24;102964.03;5055680;28;45580;-76
2022/01/26 08:39:21;;;;;;;;;54.50;39.25;;;;;8.03;51.11;102971.94;5068595;28;45660;-80
2022/01/26 08:41:47;;;;;;;;;57.25;43.25;;;;;8.07;50.31;102990.66;5069043;28;45766;-79
2022/01/26 08:44:13;;;;;;;;;44.50;37.25;;;;;8.06;51.71;102985.34;5069372;28;45937;-79
2022/01/26 08:46:39;;;;;;;;;55.00;42.00;;;;;8.11;50.69;102993.97;5068072;28;45865;-78
2022/01/26 08:49:05;;;;;;;;;54.75;41.25;;;;;8.17;51.53;103001.63;5053836;28;46088;-78
2022/01/26 08:51:31;;;;;;;;;56.00;40.25;;;;;8.28;50.94;103009.75;5073235;28;46583;-79
2022/01/26 08:53:57;;;;;;;;;48.75;36.00;;;;;8.42;50.11;103013.97;5074085;28;45522;-79
2022/01/26 08:56:22;;;;;;;;;49.00;39.50;;;;;8.51;49.86;103015.03;5073457;28;45839;-76
2022/01/26 08:58:48;;;;;;;;;48.75;38.25;;;;;8.62;49.71;103011.31;5067819;28;45774;-79
2022/01/26 09:01:13;;;;;;;;;51.00;41.25;;;;;8.65;49.68;103008.28;5071502;28;45482;-78
2022/01/26 09:03:39;;;;;;;;;55.25;40.50;;;;;8.71;49.48;103007.72;5053923;28;45514;-80
2022/01/26 09:06:08;;;;;;;;;48.00;38.00;;;;;8.73;49.40;103002.16;5070707;28;45474;-77
2022/01/26 09:08:35;;;;;;;;;54.75;43.75;;;;;8.83;49.88;103019.41;5054183;28;45777;-78
2022/01/26 09:11:02;;;;;;;;;56.75;41.75;;;;;8.88;49.46;103022.63;5065000;28;45624;-80
2022/01/26 09:13:33;;;;;;;;;51.75;39.25;;;;;8.87;49.82;103015.41;5065146;28;45862;-80
2022/01/26 09:16:00;;;;;;;;;57.00;41.75;;;;;9.02;49.79;103027.66;5070575;28;45716;-78
2022/01/26 09:18:39;;;;;;;;;62.00;45.25;;;;;8.98;49.09;103023.50;5067175;28;45735;-80
2022/01/26 09:21:06;;;;;;;;;56.50;39.00;;;;;9.16;48.78;103047.41;5054043;28;46060;-77
2022/01/26 09:23:32;;;;;;;;;56.25;41.25;;;;;9.15;48.61;103026.53;5054375;28;45984;-78
2022/01/26 09:25:59;;;;;;;;;54.00;40.75;;;;;9.21;48.81;103034.19;5071536;28;46417;-79
2022/01/26 09:28:25;;;;;;;;;53.00;41.25;;;;;9.27;49.24;103043.69;5068155;28;45601;-79
2022/01/26 09:30:52;;;;;;;;;58.50;41.25;;;;;9.28;48.83;103034.44;5049300;28;45560;-78
2022/01/26 09:33:17;;;;;;;;;58.25;40.00;;;;;9.29;48.15;103031.56;5043861;28;45751;-79
2022/01/26 09:35:44;;;;;;;;;53.75;39.25;;;;;9.38;48.24;103034.47;5070881;28;45753;-78
2022/01/26 09:38:10;;;;;;;;;55.75;41.00;;;;;9.48;47.91;103035.31;5073799;27;45892;-79
2022/01/26 09:40:39;;;;;;;;;49.25;38.50;;;;;9.55;47.88;103039.22;5067299;28;45984;-77
2022/01/26 09:43:08;;;;;;;;;56.00;41.00;;;;;9.60;47.70;103049.75;5067569;28;45404;-78
2022/01/26 09:45:35;;;;;;;;;53.00;40.75;;;;;9.58;47.25;103052.63;5066623;28;45720;-78
2022/01/26 09:48:04;;;;;;;;;56.50;41.00;;;;;9.54;48.04;103052.03;5070709;28;46769;-78
2022/01/26 09:50:31;;;;;;;;;45.00;37.75;;;;;9.60;47.77;103063.44;5066872;28;47604;-77
2022/01/26 09:52:57;;;;;;;;;52.25;38.50;;;;;9.58;48.22;103052.63;5078660;27;45698;-79
2022/01/26 09:55:25;;;;;;;;;42.25;35.25;;;;;9.59;47.92;103069.91;5061856;28;45833;-79
2022/01/26 09:57:57;;;;;;;;;51.75;37.50;;;;;9.45;47.95;103046.56;5069584;28;45512;-79
2022/01/26 10:00:27;;;;;;;;;44.00;35.75;;;;;9.38;48.06;103028.97;5046532;28;46859;-79
2022/01/26 10:03:08;;;;;;;;;50.50;35.25;;;;;9.48;47.79;103040.81;5066173;28;45815;-76
2022/01/26 10:05:45;;;;;;;;;49.00;37.25;;;;;9.28;47.99;103013.44;5051913;28;45824;-78
2022/01/26 10:08:27;;;;;;;;;54.00;40.25;;;;;9.54;47.82;103054.78;5070073;28;45411;-78
2022/01/26 10:20:18;;;;;;;;;52.00;39.25;;;;;9.57;48.31;103056.38;5024135;28;46099;-78
2022/01/26 10:26:08;;;;;;;;;49.50;37.25;;;;;9.61;48.17;103057.81;5036259;28;45796;-80
2022/01/26 10:28:57;;;;;;;;;52.75;41.50;;;;;9.66;48.22;103052.75;5046179;28;45861;-77
2022/01/26 10:31:28;;;;;;;;;48.25;34.75;;;;;9.66;48.50;103032.72;5065496;28;45569;-78
2022/01/26 10:34:04;;;;;;;;;50.00;36.00;;;;;9.69;48.16;103036.00;5054821;28;46462;-79
2022/01/26 10:36:43;;;;;;;;;50.50;37.50;;;;;9.77;48.14;103059.09;5043730;28;45697;-77
2022/01/26 10:39:22;;;;;;;;;53.00;37.75;;;;;9.82;47.87;103059.50;5045299;28;45935;-79
2022/01/26 10:41:50;;;;;;;;;52.50;39.75;;;;;9.90;48.10;103068.72;5047074;28;45921;-77
2022/01/26 10:44:17;;;;;;;;;55.75;39.25;;;;;9.97;47.24;103055.31;5046844;28;47107;-77
2022/01/26 10:46:44;;;;;;;;;54.75;42.00;;;;;9.99;47.06;103039.56;5045182;28;45394;-78
2022/01/26 10:49:19;;;;;;;;;53.75;39.75;;;;;9.95;47.57;103046.34;5049048;28;45807;-77
2022/01/26 10:54:38;;;;;;;;;58.75;42.50;;;;;9.92;48.51;103041.16;5041950;28;45887;-75
2022/01/26 10:57:09;;;;;;;;;54.50;44.00;;;;;9.96;48.31;103026.16;5046650;28;45355;-78
2022/01/26 10:59:37;;;;;;;;;52.75;40.00;;;;;9.98;47.89;103031.47;5045209;28;46788;-78
2022/01/26 11:02:11;;;;;;;;;55.25;42.75;;;;;10.09;47.99;103045.03;5047489;28;45813;-79
2022/01/26 11:04:39;;;;;;;;;55.25;40.75;;;;;10.16;47.84;103040.66;5046676;28;48589;-78
2022/01/26 11:07:06;;;;;;;;;58.50;42.75;;;;;10.22;47.86;103040.06;5044800;28;45760;-78
2022/01/26 11:09:35;;;;;;;;;48.25;37.50;;;;;10.29;47.90;103023.88;5037090;28;45805;-78
2022/01/26 11:12:03;;;;;;;;;51.00;40.00;;;;;10.28;47.66;103027.63;5031644;28;45700;-76
2022/01/26 11:14:49;;;;;;;;;50.50;39.00;;;;;10.23;47.25;103033.56;5031582;28;45732;-83
2022/01/26 11:17:32;;;;;;;;;49.00;39.25;;;;;10.18;47.67;103026.78;5033262;28;45826;-72
2022/01/26 11:19:59;;;;;;;;;57.50;42.50;;;;;10.23;47.75;103019.00;5036890;28;45836;-79
2022/01/26 11:22:28;;;;;;;;;52.50;40.00;;;;;10.24;48.49;103004.28;5031141;28;46226;-78
2022/01/26 11:25:08;;;;;;;;;53.75;41.50;;;;;10.24;47.44;102999.66;5043285;28;45927;-83
2022/01/26 11:30:53;;;;;;;;;57.00;45.00;;;;;9.91;48.33;102970.94;4942531;28;45638;-81
2022/01/26 11:33:33;;;;;;;;;58.25;43.00;;;;;10.24;48.14;103012.50;5060700;27;46778;-83
2022/01/26 11:35:58;;;;;;;;;54.50;42.25;;;;;10.22;47.87;102992.56;5093923;27;45706;-79
2022/01/26 11:42:12;;;;;;;;;44.00;33.75;;;;;10.34;47.70;103021.56;5081004;27;45377;-82
2022/01/26 11:46:04;;;;;;;;;46.00;38.75;;;;;10.63;46.83;103004.09;5072926;28;45540;-81
2022/01/26 11:49:05;;;;;;;;;56.00;41.75;;;;;10.50;47.65;102956.97;4972626;28;46884;-80
2022/01/26 11:51:53;;;;;;;;;55.00;41.00;;;;;10.67;47.76;102983.53;5019588;28;45748;-81
2022/01/26 11:54:50;;;;;;;;;53.25;42.50;;;;;10.50;47.79;102948.72;5071932;28;45507;-78
2022/01/26 11:57:21;;;;;;;;;54.75;43.50;;;;;10.79;47.33;102975.97;5068738;28;45548;-77
2022/01/26 12:01:09;;;;;;;;;59.00;46.00;;;;;10.76;47.33;102968.03;5069267;27;45573;-78
2022/01/26 12:03:36;;;;;;;;;66.50;45.75;;;;;10.64;47.61;102937.22;5041613;28;45417;-75
2022/01/26 12:06:05;;;;;;;;;55.00;43.25;;;;;10.86;47.33;102967.97;5071305;27;45644;-74
2022/01/26 12:08:37;;;;;;;;;61.25;47.50;;;;;10.74;47.01;102934.41;5048397;28;45589;-77
2022/01/26 12:11:09;;;;;;;;;60.00;44.75;;;;;10.88;47.87;102950.34;5053478;28;46205;-76
2022/01/26 12:13:39;;;;;;;;;58.75;45.00;;;;;11.02;47.45;102954.41;5071415;28;45398;-73
2022/01/26 12:16:18;;;;;;;;;57.50;45.25;;;;;11.05;46.68;102948.59;5052912;28;46081;-77
2022/01/26 12:19:00;;;;;;;;;60.75;45.25;;;;;11.09;46.51;102955.50;5052114;28;47269;-77
2022/01/26 12:43:53;;;;;;;;;59.75;44.25;;;;;11.22;47.04;102962.47;5065978;28;45559;-74
2022/01/26 12:46:28;;;;;;;;;55.00;44.00;;;;;11.19;45.88;102962.78;5067806;28;45739;-75
2022/01/26 12:48:55;;;;;;;;;61.25;46.00;;;;;11.23;46.64;102972.44;5068704;28;45703;-75
2022/01/26 12:51:21;;;;;;;;;57.75;45.25;;;;;11.18;46.55;102969.31;5071008;28;46463;-76
2022/01/26 12:53:59;;;;;;;;;61.00;47.00;;;;;11.23;46.74;102961.47;5067929;28;46481;-77
2022/01/26 12:56:27;;;;;;;;;60.25;46.25;;;;;11.25;47.06;102964.91;5070802;27;45542;-81
2022/01/26 12:59:02;;;;;;;;;60.25;46.00;;;;;11.25;46.78;102960.25;5069715;28;45486;-80
2022/01/26 13:01:38;;;;;;;;;56.25;44.75;;;;;11.20;46.81;102942.56;5085869;27;45807;-81
2022/01/26 13:04:05;;;;;;;;;58.75;47.00;;;;;11.27;46.54;102951.88;5041032;28;45430;-77
2022/01/26 13:06:37;;;;;;;;;59.75;43.50;;;;;11.21;46.51;102945.16;5057914;28;45866;-77
2022/01/26 13:09:17;;;;;;;;;60.25;45.25;;;;;11.24;47.19;102949.44;5067922;28;45704;-79
2022/01/26 13:11:47;;;;;;;;;62.00;46.25;;;;;11.24;47.33;102943.94;5067367;28;45901;-78
2022/01/26 13:14:32;;;;;;;;;57.75;45.50;;;;;11.22;47.24;102946.00;5048753;28;45741;-78
2022/01/26 13:17:15;;;;;;;;;65.50;46.50;;;;;11.22;47.33;102933.13;5066177;28;45915;-77
2022/01/26 13:28:23;;;;;;;;;62.00;46.25;;;;;11.13;47.16;102934.94;5058655;28;45459;-77
2022/01/26 13:38:50;;;;;;;;;58.75;46.25;;;;;10.97;48.38;102931.19;5054861;27;45587;-78
2022/01/26 13:49:45;;;;;;;;;59.25;45.50;;;;;10.80;47.92;102927.44;5012858;28;45936;-79
2022/01/26 13:54:55;;;;;;;;;55.25;43.50;;;;;10.70;48.83;102932.97;5072912;28;45628;-78
2022/01/26 14:00:08;;;;;;;;;55.75;42.00;;;;;10.68;48.26;102935.88;5067034;27;45696;-77
2022/01/26 14:02:36;;;;;;;;;55.50;43.00;;;;;10.66;48.75;102926.06;5054701;28;45395;-75
2022/01/26 14:05:02;;;;;;;;;52.75;42.25;;;;;10.67;48.34;102931.41;5046692;28;45614;-77
2022/01/26 14:07:28;;;;;;;;;55.50;42.25;;;;;10.65;49.35;102927.13;5062530;27;45900;-77
2022/01/26 14:09:53;;;;;;;;;51.25;40.00;;;;;10.68;48.77;102918.56;5071700;28;45934;-77
2022/01/26 14:12:24;;;;;;;;;53.75;42.75;;;;;10.63;48.49;102899.81;5071162;28;45750;-78
2022/01/26 14:15:00;;;;;;;;;55.75;41.50;;;;;10.67;48.59;102903.97;5068328;28;45801;-82
2022/01/26 14:18:34;;;;;;;;;48.25;37.25;;;;;10.72;49.48;102898.88;5053966;28;48185;-74
2022/01/26 14:20:40;;;;;;;;;46.00;38.00;;;;;10.63;48.21;102902.56;5059888;28;45658;-73
2022/01/26 14:23:03;;;;;;;;;43.25;34.00;;;;;10.63;48.26;102902.56;5063065;28;45775;-76